createdAt,value
2022-08-01T00:01:35.083Z,46.25
2022-08-01T00:03:39.673Z,46.21
2022-08-01T00:05:45.489Z,46.29
2022-08-01T00:07:50.205Z,46.13
2022-08-01T00:09:54.804Z,46.50
2022-08-01T00:12:02.114Z,46.79
2022-08-01T00:14:06.834Z,46.72
2022-08-01T00:16:11.672Z,46.40
2022-08-01T00:18:16.242Z,46.17
2022-08-01T00:20:20.845Z,46.46
2022-08-01T00:22:25.465Z,46.19
2022-08-01T00:24:32.847Z,46.00
2022-08-01T00:26:37.705Z,45.80
2022-08-01T00:28:45.018Z,46.32
2022-08-01T00:30:49.652Z,46.38
2022-08-01T00:32:54.288Z,45.93
2022-08-01T00:34:59.090Z,45.81
2022-08-01T00:37:03.702Z,45.83
2022-08-01T00:39:08.246Z,46.13
2022-08-01T00:41:12.889Z,45.68
2022-08-01T00:43:17.806Z,45.98
2022-08-01T00:45:28.061Z,46.08
2022-08-01T00:47:32.664Z,46.75
2022-08-01T00:49:38.064Z,46.72
2022-08-01T00:51:42.833Z,47.02
2022-08-01T00:53:51.256Z,47.33
2022-08-01T00:55:57.204Z,47.48
2022-08-01T00:58:05.711Z,46.71
2022-08-01T01:00:11.949Z,47.07
2022-08-01T01:02:21.969Z,47.14
2022-08-01T01:04:26.550Z,46.82
2022-08-01T01:06:34.788Z,47.53
2022-08-01T01:08:43.456Z,47.12
2022-08-01T01:10:51.869Z,46.97
2022-08-01T01:12:59.589Z,47.34
2022-08-01T01:15:08.178Z,47.37
2022-08-01T01:17:14.454Z,47.25
2022-08-01T01:19:24.796Z,47.38
2022-08-01T01:21:50.297Z,47.25
2022-08-01T01:23:59.393Z,47.22
2022-08-01T01:26:18.958Z,47.28
2022-08-01T01:28:30.320Z,47.20
2022-08-01T01:30:38.770Z,47.48
2022-08-01T01:32:45.475Z,47.79
2022-08-01T01:34:52.555Z,47.63
2022-08-01T01:36:58.478Z,47.18
2022-08-01T01:39:04.523Z,47.92
2022-08-01T01:41:09.739Z,47.82
2022-08-01T01:43:15.324Z,48.15
2022-08-01T01:45:20.086Z,48.28
2022-08-01T01:47:28.582Z,48.16
2022-08-01T01:49:33.981Z,48.40
2022-08-01T01:51:38.714Z,48.55
2022-08-01T01:53:44.656Z,48.53
2022-08-01T01:55:50.361Z,48.72
2022-08-01T01:57:56.067Z,48.71
2022-08-01T02:00:01.217Z,48.71
2022-08-01T02:02:07.270Z,48.75
2022-08-01T02:04:15.277Z,48.87
2022-08-01T02:06:20.468Z,48.72
2022-08-01T02:08:26.727Z,48.97
2022-08-01T02:10:32.330Z,49.09
2022-08-01T02:12:38.757Z,49.05
2022-08-01T02:14:46.001Z,48.75
2022-08-01T02:16:52.095Z,48.68
2022-08-01T02:18:57.534Z,49.18
2022-08-01T02:21:06.614Z,48.88
2022-08-01T02:23:17.070Z,49.41
2022-08-01T02:25:24.295Z,48.99
2022-08-01T02:27:32.510Z,49.24
2022-08-01T02:29:41.521Z,49.46
2022-08-01T02:31:48.907Z,49.50
2022-08-01T02:33:58.082Z,49.81
2022-08-01T02:36:32.312Z,49.66
2022-08-01T02:38:32.767Z,49.88
2022-08-01T02:40:38.185Z,50.18
2022-08-01T02:42:45.548Z,50.13
2022-08-01T02:44:52.137Z,50.53
2022-08-01T02:47:03.413Z,49.94
2022-08-01T02:49:10.586Z,50.34
2022-08-01T02:51:19.436Z,50.36
2022-08-01T02:53:44.342Z,50.57
2022-08-01T02:55:50.793Z,50.52
2022-08-01T02:58:00.229Z,50.89
2022-08-01T03:00:08.212Z,50.71
2022-08-01T03:02:15.699Z,50.96
2022-08-01T03:04:21.590Z,51.02
2022-08-01T03:06:29.119Z,50.97
2022-08-01T03:08:34.484Z,51.08
2022-08-01T03:10:40.565Z,51.59
2022-08-01T03:12:45.930Z,51.16
2022-08-01T03:14:55.365Z,51.40
2022-08-01T03:17:01.805Z,51.91
2022-08-01T03:19:07.470Z,52.31
2022-08-01T03:21:14.405Z,52.68
2022-08-01T03:23:22.851Z,52.63
2022-08-01T03:25:43.556Z,52.96
2022-08-01T03:27:50.534Z,53.23
2022-08-01T03:29:55.910Z,52.98
2022-08-01T03:32:01.533Z,53.62
2022-08-01T03:34:06.375Z,53.29
2022-08-01T03:36:15.817Z,53.46
2022-08-01T03:38:25.274Z,53.78
2022-08-01T03:40:34.749Z,53.85
2022-08-01T03:42:41.223Z,54.05
2022-08-01T03:44:50.734Z,54.15
2022-08-01T03:47:00.120Z,54.50
2022-08-01T03:49:05.963Z,54.35
2022-08-01T03:51:11.186Z,54.11
2022-08-01T03:53:17.029Z,54.86
2022-08-01T03:55:25.403Z,54.40
2022-08-01T03:57:36.410Z,54.27
2022-08-01T03:59:42.218Z,54.85
2022-08-01T04:01:47.072Z,54.78
2022-08-01T04:03:51.876Z,54.85
2022-08-01T04:05:56.558Z,54.91
2022-08-01T04:08:03.208Z,54.55
2022-08-01T04:10:09.174Z,54.82
2022-08-01T04:12:16.404Z,54.88
2022-08-01T04:14:21.020Z,54.84
2022-08-01T04:16:26.273Z,55.14
2022-08-01T04:18:30.904Z,55.47
2022-08-01T04:20:35.500Z,55.18
2022-08-01T04:22:41.501Z,55.54
2022-08-01T04:24:53.334Z,55.56
2022-08-01T04:27:02.153Z,54.92
2022-08-01T04:29:10.453Z,55.64
2022-08-01T04:31:17.010Z,55.06
2022-08-01T04:33:23.220Z,54.87
2022-08-01T04:36:04.077Z,54.97
2022-08-01T04:37:54.751Z,54.84
2022-08-01T04:40:00.704Z,54.83
2022-08-01T04:42:06.384Z,54.41
2022-08-01T04:44:13.714Z,54.25
2022-08-01T04:46:18.955Z,54.53
2022-08-01T04:48:25.462Z,54.65
2022-08-01T04:50:30.459Z,54.47
2022-08-01T04:52:38.845Z,54.42
2022-08-01T04:54:45.307Z,54.67
2022-08-01T04:56:51.407Z,54.47
2022-08-01T04:59:20.176Z,54.76
2022-08-01T05:01:27.700Z,54.98
2022-08-01T05:03:35.849Z,55.06
2022-08-01T05:05:43.272Z,55.01
2022-08-01T05:07:48.118Z,55.17
2022-08-01T05:09:52.702Z,54.68
2022-08-01T05:11:59.335Z,54.96
2022-08-01T05:14:04.153Z,55.08
2022-08-01T05:16:08.748Z,55.14
2022-08-01T05:18:15.966Z,55.36
2022-08-01T05:20:20.597Z,55.22
2022-08-01T05:22:26.693Z,55.11
2022-08-01T05:24:32.144Z,55.35
2022-08-01T05:26:36.915Z,55.32
2022-08-01T05:28:41.550Z,55.51
2022-08-01T05:30:46.148Z,55.42
2022-08-01T05:32:50.846Z,55.93
2022-08-01T05:34:58.070Z,56.14
2022-08-01T05:37:02.826Z,55.86
2022-08-01T05:39:07.509Z,56.09
2022-08-01T05:41:12.120Z,56.37
2022-08-01T05:43:16.665Z,55.69
2022-08-01T05:45:21.285Z,56.13
2022-08-01T05:47:25.888Z,55.99
2022-08-01T05:49:30.517Z,56.37
2022-08-01T05:51:37.759Z,56.59
2022-08-01T05:53:42.427Z,56.29
2022-08-01T05:55:46.966Z,56.55
2022-08-01T05:57:51.572Z,56.43
2022-08-01T05:59:56.317Z,56.31
2022-08-01T06:02:01.068Z,55.96
2022-08-01T06:04:05.755Z,55.66
2022-08-01T06:06:10.461Z,55.78
2022-08-01T06:08:17.685Z,55.66
2022-08-01T06:10:24.487Z,55.29
2022-08-01T06:12:32.446Z,55.71
2022-08-01T06:14:40.034Z,55.61
2022-08-01T06:16:44.710Z,55.34
2022-08-01T06:18:51.160Z,55.29
2022-08-01T06:20:57.422Z,55.77
2022-08-01T06:23:05.816Z,56.08
2022-08-01T06:25:29.338Z,55.71
2022-08-01T06:27:33.932Z,55.55
2022-08-01T06:29:38.667Z,55.11
2022-08-01T06:31:43.251Z,54.68
2022-08-01T06:33:47.846Z,54.83
2022-08-01T06:35:52.488Z,54.77
2022-08-01T06:37:57.029Z,54.25
2022-08-01T06:40:03.985Z,54.94
2022-08-01T06:44:06.922Z,54.24
2022-08-01T06:46:11.826Z,54.09
2022-08-01T06:48:16.814Z,53.86
2022-08-01T06:50:22.112Z,54.03
2022-08-01T06:52:27.089Z,53.89
2022-08-01T06:54:32.282Z,53.53
2022-08-01T06:56:37.198Z,53.75
2022-08-01T06:58:42.077Z,53.74
2022-08-01T07:00:51.000Z,53.79
2022-08-01T07:03:00.944Z,53.37
2022-08-01T07:05:05.908Z,53.10
2022-08-01T07:07:10.661Z,52.99
2022-08-01T07:09:15.497Z,52.96
2022-08-01T07:11:20.532Z,52.74
2022-08-01T07:13:26.055Z,52.89
2022-08-01T07:15:51.258Z,53.16
2022-08-01T07:17:58.042Z,52.65
2022-08-01T07:20:02.946Z,52.87
2022-08-01T07:22:08.175Z,52.85
2022-08-01T07:24:19.393Z,52.32
2022-08-01T07:26:25.659Z,52.56
2022-08-01T07:28:30.553Z,52.09
2022-08-01T07:30:35.564Z,51.48
2022-08-01T07:32:42.816Z,51.78
2022-08-01T07:34:47.648Z,51.19
2022-08-01T07:36:52.799Z,50.68
2022-08-01T07:38:58.030Z,50.64
2022-08-01T07:41:03.494Z,49.95
2022-08-01T07:43:08.141Z,50.67
2022-08-01T07:45:15.373Z,50.25
2022-08-01T07:47:20.248Z,50.08
2022-08-01T07:49:27.818Z,49.52
2022-08-01T07:51:32.823Z,49.70
2022-08-01T07:53:37.379Z,49.25
2022-08-01T07:55:42.239Z,49.52
2022-08-01T07:57:50.972Z,49.73
2022-08-01T07:59:55.938Z,49.68
2022-08-01T08:02:00.682Z,50.16
2022-08-01T08:04:06.201Z,49.50
2022-08-01T08:06:13.994Z,49.65
2022-08-01T08:08:19.373Z,50.37
2022-08-01T08:10:26.810Z,50.79
2022-08-01T08:12:31.656Z,50.55
2022-08-01T08:14:36.613Z,49.97
2022-08-01T08:16:41.543Z,49.52
2022-08-01T08:18:46.379Z,49.60
2022-08-01T08:20:51.302Z,48.81
2022-08-01T08:22:59.586Z,48.79
2022-08-01T08:25:04.554Z,48.25
2022-08-01T08:27:12.558Z,48.20
2022-08-01T08:29:17.941Z,48.38
2022-08-01T08:31:51.459Z,48.07
2022-08-01T08:33:50.751Z,47.93
2022-08-01T08:35:55.873Z,47.14
2022-08-01T08:38:03.450Z,47.08
2022-08-01T08:40:10.196Z,47.22
2022-08-01T08:42:15.640Z,47.29
2022-08-01T08:44:21.673Z,47.46
2022-08-01T08:46:28.908Z,47.45
2022-08-01T08:48:34.765Z,48.53
2022-08-01T08:50:40.857Z,48.35
2022-08-01T08:52:47.203Z,48.58
2022-08-01T08:54:56.222Z,48.23
2022-08-01T08:57:02.630Z,47.47
2022-08-01T08:59:08.288Z,47.03
2022-08-01T09:01:13.610Z,46.39
2022-08-01T09:03:18.718Z,46.31
2022-08-01T09:05:38.781Z,46.24
2022-08-01T09:07:43.870Z,45.46
2022-08-01T09:09:50.230Z,44.43
2022-08-01T09:11:59.497Z,44.26
2022-08-01T09:14:10.149Z,44.66
2022-08-01T09:16:20.998Z,44.88
2022-08-01T09:18:35.173Z,45.02
2022-08-01T09:20:40.055Z,45.65
2022-08-01T09:22:47.662Z,46.28
2022-08-01T09:25:04.296Z,45.76
2022-08-01T09:27:24.993Z,46.17
2022-08-01T09:29:38.072Z,45.94
2022-08-01T09:31:47.534Z,45.87
2022-08-01T09:33:55.812Z,45.38
2022-08-01T09:36:03.843Z,45.20
2022-08-01T09:38:23.121Z,44.70
2022-08-01T09:40:27.962Z,44.45
2022-08-01T09:42:35.495Z,44.69
2022-08-01T09:44:45.637Z,44.48
2022-08-01T09:47:00.573Z,44.25
2022-08-01T09:49:12.801Z,44.25
2022-08-01T09:51:59.107Z,44.51
2022-08-01T09:53:57.110Z,44.20
2022-08-01T09:56:13.534Z,43.98
2022-08-01T09:58:21.669Z,43.42
2022-08-01T10:00:44.229Z,43.17
2022-08-01T10:02:49.987Z,42.58
2022-08-01T10:04:59.978Z,42.41
2022-08-01T10:07:11.045Z,41.46
2022-08-01T10:09:18.514Z,41.03
2022-08-01T10:11:23.657Z,40.67
2022-08-01T10:13:44.535Z,40.50
2022-08-01T10:15:50.189Z,40.81
2022-08-01T10:17:58.061Z,41.67
2022-08-01T10:20:05.627Z,43.09
2022-08-01T10:22:28.209Z,43.30
2022-08-01T10:24:34.601Z,43.54
2022-08-01T10:26:41.360Z,43.25
2022-08-01T10:28:52.442Z,42.31
2022-08-01T10:30:58.285Z,41.96
2022-08-01T10:33:04.256Z,41.16
2022-08-01T10:35:15.800Z,41.23
2022-08-01T10:37:21.026Z,41.01
2022-08-01T10:39:27.403Z,40.89
2022-08-01T10:41:37.082Z,41.06
2022-08-01T10:43:49.216Z,39.69
2022-08-01T10:45:55.016Z,39.35
2022-08-01T10:48:10.812Z,39.17
2022-08-01T10:50:25.994Z,39.16
2022-08-01T10:52:30.861Z,40.08
2022-08-01T10:54:52.624Z,39.53
2022-08-01T10:56:58.580Z,39.15
2022-08-01T10:59:11.750Z,39.25
2022-08-01T11:01:25.922Z,39.54
2022-08-01T11:03:56.493Z,39.93
2022-08-01T11:06:02.385Z,40.30
2022-08-01T11:08:12.866Z,40.38
2022-08-01T11:10:28.409Z,40.30
2022-08-01T11:12:44.049Z,40.15
2022-08-01T11:15:29.401Z,39.48
2022-08-01T11:17:42.531Z,39.83
2022-08-01T11:20:09.893Z,38.95
2022-08-01T11:22:14.818Z,38.95
2022-08-01T11:24:21.620Z,39.01
2022-08-01T11:26:29.070Z,39.00
2022-08-01T11:28:35.788Z,38.63
2022-08-01T11:30:41.677Z,39.04
2022-08-01T11:33:11.067Z,38.29
2022-08-01T11:35:17.758Z,38.99
2022-08-01T11:37:31.200Z,38.38
2022-08-01T11:39:38.864Z,38.99
2022-08-01T11:41:45.309Z,38.87
2022-08-01T11:44:09.126Z,39.05
2022-08-01T11:46:14.082Z,37.38
2022-08-01T11:48:28.405Z,37.32
2022-08-01T11:50:40.299Z,37.09
2022-08-01T11:52:46.686Z,36.87
2022-08-01T11:54:55.550Z,37.52
2022-08-01T11:57:03.703Z,38.02
2022-08-01T11:59:14.989Z,38.12
2022-08-01T12:01:23.617Z,37.76
2022-08-01T12:03:36.635Z,38.19
2022-08-01T12:05:43.197Z,37.92
2022-08-01T12:07:48.858Z,37.68
2022-08-01T12:10:01.704Z,37.60
2022-08-01T12:12:07.397Z,37.49
2022-08-01T12:14:12.418Z,37.00
2022-08-01T12:16:19.217Z,37.04
2022-08-01T12:18:31.401Z,36.99
2022-08-01T12:20:38.140Z,36.37
2022-08-01T12:22:45.142Z,37.05
2022-08-01T12:24:50.047Z,37.40
2022-08-01T12:26:54.605Z,37.40
2022-08-01T12:28:59.589Z,37.92
2022-08-01T12:31:04.458Z,37.61
2022-08-01T12:33:13.298Z,37.90
2022-08-01T12:35:24.251Z,37.44
2022-08-01T12:37:29.646Z,37.35
2022-08-01T12:39:40.147Z,37.30
2022-08-01T12:41:47.521Z,37.63
2022-08-01T12:43:52.464Z,36.62
2022-08-01T12:45:58.180Z,36.53
2022-08-01T12:48:03.528Z,36.22
2022-08-01T12:50:11.847Z,35.93
2022-08-01T12:52:26.599Z,35.67
2022-08-01T12:54:32.240Z,35.04
2022-08-01T12:56:37.555Z,35.45
2022-08-01T12:58:42.840Z,35.87
2022-08-01T13:00:49.149Z,36.92
2022-08-01T13:03:03.886Z,37.35
2022-08-01T13:05:10.678Z,37.30
2022-08-01T13:07:15.466Z,36.66
2022-08-01T13:09:23.170Z,36.80
2022-08-01T13:11:30.991Z,37.26
2022-08-01T13:13:43.127Z,36.53
2022-08-01T13:15:48.528Z,36.81
2022-08-01T13:17:54.052Z,36.38
2022-08-01T13:19:59.224Z,36.51
2022-08-01T13:22:04.113Z,36.34
2022-08-01T13:24:10.696Z,36.04
2022-08-01T13:26:20.559Z,35.96
2022-08-01T13:28:27.503Z,36.28
2022-08-01T13:30:32.416Z,36.10
2022-08-01T13:32:37.139Z,36.19
2022-08-01T13:34:42.009Z,36.39
2022-08-01T13:36:49.575Z,35.90
2022-08-01T13:39:07.120Z,35.85
2022-08-01T13:41:23.220Z,35.99
2022-08-01T13:43:33.036Z,35.50
2022-08-01T13:45:53.574Z,35.57
2022-08-01T13:48:11.981Z,33.87
2022-08-01T13:50:20.680Z,33.50
2022-08-01T13:52:25.606Z,33.39
2022-08-01T13:54:30.241Z,33.45
2022-08-01T13:56:38.334Z,32.77
2022-08-01T13:58:43.256Z,33.46
2022-08-01T14:00:49.925Z,32.70
2022-08-01T14:02:55.256Z,32.41
2022-08-01T14:05:00.116Z,32.03
2022-08-01T14:07:10.671Z,31.92
2022-08-01T14:09:23.803Z,31.36
2022-08-01T14:11:33.937Z,31.48
2022-08-01T14:13:46.814Z,31.32
2022-08-01T14:15:51.857Z,31.18
2022-08-01T14:17:59.637Z,31.47
2022-08-01T14:20:06.277Z,31.61
2022-08-01T14:22:11.175Z,32.31
2022-08-01T14:24:15.697Z,32.28
2022-08-01T14:26:20.556Z,32.30
2022-08-01T14:28:25.299Z,32.33
2022-08-01T14:30:33.117Z,32.52
2022-08-01T14:32:38.544Z,32.80
2022-08-01T14:34:43.366Z,33.04
2022-08-01T14:36:48.466Z,32.62
2022-08-01T14:38:54.386Z,31.94
2022-08-01T14:41:06.423Z,32.27
2022-08-01T14:43:25.036Z,32.06
2022-08-01T14:45:34.711Z,31.70
2022-08-01T14:47:39.989Z,32.29
2022-08-01T14:49:45.658Z,32.48
2022-08-01T14:51:50.728Z,32.25
2022-08-01T14:53:55.415Z,32.39
2022-08-01T14:56:00.338Z,32.38
2022-08-01T14:58:04.925Z,31.76
2022-08-01T15:00:12.555Z,31.66
2022-08-01T15:02:20.630Z,31.50
2022-08-01T15:04:25.460Z,31.58
2022-08-01T15:06:30.368Z,31.29
2022-08-01T15:08:37.242Z,31.06
2022-08-01T15:10:41.785Z,31.47
2022-08-01T15:12:50.481Z,31.84
2022-08-01T15:14:55.764Z,31.87
2022-08-01T15:17:00.657Z,31.84
2022-08-01T15:19:07.872Z,31.31
2022-08-01T15:21:29.282Z,31.17
2022-08-01T15:23:37.612Z,30.72
2022-08-01T15:25:42.557Z,29.88
2022-08-01T15:27:47.447Z,30.08
2022-08-01T15:29:53.231Z,29.84
2022-08-01T15:31:58.435Z,29.54
2022-08-01T15:34:03.807Z,29.87
2022-08-01T15:36:12.502Z,29.31
2022-08-01T15:38:20.478Z,29.37
2022-08-01T15:40:25.378Z,28.86
2022-08-01T15:42:30.287Z,28.79
2022-08-01T15:44:35.418Z,28.37
2022-08-01T15:46:40.327Z,28.37
2022-08-01T15:48:45.223Z,28.49
2022-08-01T15:50:51.558Z,28.98
2022-08-01T15:52:58.943Z,28.70
2022-08-01T15:55:03.868Z,29.45
2022-08-01T15:57:09.511Z,29.93
2022-08-01T15:59:16.225Z,29.97
2022-08-01T16:01:22.156Z,30.35
2022-08-01T16:03:27.839Z,29.75
2022-08-01T16:05:32.676Z,30.10
2022-08-01T16:07:37.294Z,31.31
2022-08-01T16:10:04.744Z,32.25
2022-08-01T16:12:10.511Z,32.56
2022-08-01T16:14:15.448Z,33.12
2022-08-01T16:16:20.610Z,33.24
2022-08-01T16:18:25.562Z,33.31
2022-08-01T16:20:30.097Z,33.30
2022-08-01T16:22:36.810Z,32.85
2022-08-01T16:24:41.652Z,33.50
2022-08-01T16:26:48.798Z,33.21
2022-08-01T16:28:54.619Z,33.33
2022-08-01T16:31:17.049Z,33.72
2022-08-01T16:33:40.197Z,33.63
2022-08-01T16:35:49.398Z,33.67
2022-08-01T16:37:55.601Z,33.85
2022-08-01T16:40:00.529Z,34.01
2022-08-01T16:42:08.258Z,34.35
2022-08-01T16:44:15.664Z,34.41
2022-08-01T16:46:25.336Z,35.28
2022-08-01T16:48:30.445Z,35.45
2022-08-01T16:50:34.984Z,36.59
2022-08-01T16:52:42.776Z,37.32
2022-08-01T16:54:47.728Z,36.92
2022-08-01T16:56:52.654Z,37.15
2022-08-01T16:59:00.203Z,37.61
2022-08-01T17:02:00.238Z,37.33
2022-08-01T17:03:52.350Z,37.79
2022-08-01T17:05:54.826Z,37.34
2022-08-01T17:07:59.758Z,37.58
2022-08-01T17:10:04.939Z,37.88
2022-08-01T17:12:10.782Z,37.63
2022-08-01T17:14:18.762Z,37.56
2022-08-01T17:16:23.688Z,37.83
2022-08-01T17:18:28.253Z,37.92
2022-08-01T17:20:33.364Z,37.79
2022-08-01T17:22:38.285Z,38.26
2022-08-01T17:24:42.958Z,38.22
2022-08-01T17:26:47.798Z,38.42
2022-08-01T17:28:52.698Z,38.36
2022-08-01T17:31:00.115Z,38.76
2022-08-01T17:33:04.979Z,38.43
2022-08-01T17:35:09.819Z,39.18
2022-08-01T17:37:14.769Z,38.89
2022-08-01T17:39:23.891Z,39.17
2022-08-01T17:41:44.288Z,39.54
2022-08-01T17:43:49.150Z,39.64
2022-08-01T17:45:54.501Z,39.69
2022-08-01T17:48:01.943Z,39.83
2022-08-01T17:50:08.691Z,39.52
2022-08-01T17:52:13.673Z,39.76
2022-08-01T17:54:18.528Z,39.79
2022-08-01T17:56:23.418Z,39.79
2022-08-01T17:58:48.870Z,39.70
2022-08-01T18:00:53.199Z,39.81
2022-08-01T18:02:58.077Z,40.06
2022-08-01T18:05:10.773Z,40.25
2022-08-01T18:07:16.322Z,40.18
2022-08-01T18:09:22.274Z,40.21
2022-08-01T18:11:27.992Z,40.66
2022-08-01T18:13:32.871Z,40.74
2022-08-01T18:15:37.779Z,40.58
2022-08-01T18:17:42.661Z,41.10
2022-08-01T18:19:47.541Z,40.90
2022-08-01T18:21:55.035Z,41.43
2022-08-01T18:24:01.508Z,41.43
2022-08-01T18:26:08.681Z,41.02
2022-08-01T18:28:29.499Z,41.32
2022-08-01T18:30:38.483Z,41.32
2022-08-01T18:32:43.518Z,41.74
2022-08-01T18:34:48.520Z,41.64
2022-08-01T18:36:56.545Z,41.88
2022-08-01T18:39:04.755Z,41.80
2022-08-01T18:41:11.050Z,41.90
2022-08-01T18:43:16.562Z,41.98
2022-08-01T18:45:21.508Z,42.35
2022-08-01T18:47:26.109Z,42.46
2022-08-01T18:49:31.116Z,42.17
2022-08-01T18:51:38.840Z,42.65
2022-08-01T18:53:52.537Z,42.61
2022-08-01T18:55:57.596Z,42.68
2022-08-01T18:58:02.548Z,42.93
2022-08-01T19:00:09.245Z,43.06
2022-08-01T19:02:14.340Z,43.13
2022-08-01T19:04:18.887Z,43.34
2022-08-01T19:06:27.271Z,43.28
2022-08-01T19:08:32.258Z,43.63
2022-08-01T19:10:39.484Z,43.84
2022-08-01T19:12:44.346Z,43.79
2022-08-01T19:14:51.239Z,43.86
2022-08-01T19:16:56.563Z,44.40
2022-08-01T19:19:01.563Z,44.23
2022-08-01T19:21:09.714Z,44.05
2022-08-01T19:23:27.242Z,44.27
2022-08-01T19:25:32.240Z,44.40
2022-08-01T19:28:01.803Z,44.38
2022-08-01T19:30:07.778Z,44.74
2022-08-01T19:32:13.098Z,44.65
2022-08-01T19:34:26.741Z,44.47
2022-08-01T19:36:31.868Z,44.39
2022-08-01T19:38:38.787Z,44.51
2022-08-01T19:40:44.677Z,44.54
2022-08-01T19:42:49.751Z,44.72
2022-08-01T19:44:59.097Z,44.94
2022-08-01T19:47:04.877Z,44.95
2022-08-01T19:49:10.282Z,45.01
2022-08-01T19:51:20.594Z,45.20
2022-08-01T19:53:27.886Z,45.19
2022-08-01T19:55:37.625Z,45.29
2022-08-01T19:57:47.480Z,45.27
2022-08-01T20:00:00.357Z,45.44
2022-08-01T20:02:06.021Z,45.53
2022-08-01T20:04:11.807Z,45.79
2022-08-01T20:06:16.722Z,45.72
2022-08-01T20:08:23.473Z,45.79
2022-08-01T20:10:30.123Z,45.58
2022-08-01T20:12:35.942Z,46.30
2022-08-01T20:14:41.153Z,45.85
2022-08-01T20:16:49.455Z,46.05
2022-08-01T20:18:54.412Z,46.43
2022-08-01T20:21:03.255Z,46.17
2022-08-01T20:23:17.860Z,46.40
2022-08-01T20:25:25.334Z,46.41
2022-08-01T20:27:32.789Z,46.62
2022-08-01T20:29:39.077Z,47.12
2022-08-01T20:31:50.347Z,46.74
2022-08-01T20:33:59.322Z,47.52
2022-08-01T20:36:11.987Z,47.54
2022-08-01T20:38:29.902Z,47.04
2022-08-01T20:40:35.157Z,47.15
2022-08-01T20:42:40.907Z,47.21
2022-08-01T20:44:47.286Z,47.18
2022-08-01T20:46:53.345Z,47.56
2022-08-01T20:49:01.621Z,47.36
2022-08-01T20:51:16.155Z,47.46
2022-08-01T20:53:22.253Z,47.70
2022-08-01T20:55:35.028Z,48.66
2022-08-01T20:57:41.767Z,48.54
2022-08-01T20:59:56.588Z,48.76
2022-08-01T21:02:10.197Z,49.30
2022-08-01T21:04:37.868Z,49.69
2022-08-01T21:06:46.617Z,49.70
2022-08-01T21:08:52.664Z,50.12
2022-08-01T21:11:00.983Z,50.17
2022-08-01T21:13:08.069Z,50.06
2022-08-01T21:15:18.049Z,50.90
2022-08-01T21:17:35.635Z,50.72
2022-08-01T21:19:47.347Z,50.88
2022-08-01T21:22:00.400Z,50.55
2022-08-01T21:24:09.264Z,51.08
2022-08-01T21:26:16.061Z,50.73
2022-08-01T21:28:21.726Z,51.11
2022-08-01T21:30:27.894Z,51.31
2022-08-01T21:32:33.093Z,51.37
2022-08-01T21:34:39.709Z,51.17
2022-08-01T21:36:48.781Z,51.08
2022-08-01T21:38:53.732Z,51.10
2022-08-01T21:40:58.796Z,51.03
2022-08-01T21:43:05.172Z,51.00
2022-08-01T21:45:17.606Z,50.55
2022-08-01T21:47:25.919Z,50.62
2022-08-01T21:49:31.383Z,51.33
2022-08-01T21:51:51.852Z,50.95
2022-08-01T21:54:10.185Z,50.90
2022-08-01T21:56:29.619Z,50.49
2022-08-01T21:58:37.281Z,50.73
2022-08-01T22:00:46.648Z,50.76
2022-08-01T22:02:55.092Z,50.73
2022-08-01T22:05:06.021Z,51.24
2022-08-01T22:07:17.336Z,51.01
2022-08-01T22:09:23.282Z,51.53
2022-08-01T22:11:31.061Z,51.47
2022-08-01T22:13:37.026Z,51.50
2022-08-01T22:15:45.469Z,51.80
2022-08-01T22:17:52.034Z,51.64
2022-08-01T22:19:57.740Z,51.59
2022-08-01T22:22:04.671Z,51.59
2022-08-01T22:24:32.484Z,52.14
2022-08-01T22:26:40.412Z,51.92
2022-08-01T22:28:46.572Z,52.11
2022-08-01T22:30:54.649Z,52.51
2022-08-01T22:33:15.690Z,52.43
2022-08-01T22:35:23.519Z,52.34
2022-08-01T22:37:55.913Z,52.65
2022-08-01T22:39:56.877Z,52.85
2022-08-01T22:42:05.978Z,52.85
2022-08-01T22:44:12.352Z,52.94
2022-08-01T22:46:27.375Z,53.07
2022-08-01T22:48:39.039Z,53.39
2022-08-01T22:50:47.815Z,53.51
2022-08-01T22:53:00.082Z,53.18
2022-08-01T22:55:10.877Z,53.42
2022-08-01T22:57:27.197Z,53.47
2022-08-01T22:59:42.625Z,53.66
2022-08-01T23:01:51.748Z,53.58
2022-08-01T23:04:00.075Z,53.67
2022-08-01T23:06:06.520Z,53.71
2022-08-01T23:08:14.886Z,54.01
2022-08-01T23:10:24.874Z,54.63
2022-08-01T23:12:30.684Z,54.65
2022-08-01T23:14:36.185Z,55.07
2022-08-01T23:16:43.125Z,55.14
2022-08-01T23:18:49.335Z,55.74
2022-08-01T23:20:55.477Z,55.85
2022-08-01T23:23:00.668Z,56.43
2022-08-01T23:25:08.406Z,56.48
2022-08-01T23:28:03.690Z,56.32
2022-08-01T23:29:56.849Z,56.24
2022-08-01T23:32:03.489Z,55.82
2022-08-01T23:34:08.735Z,56.16
2022-08-01T23:36:14.776Z,56.50
2022-08-01T23:38:20.459Z,56.34
2022-08-01T23:40:25.566Z,56.86
2022-08-01T23:42:32.765Z,56.87
2022-08-01T23:44:37.960Z,57.38
2022-08-01T23:46:42.823Z,57.15
2022-08-01T23:48:47.718Z,57.48
2022-08-01T23:50:52.578Z,57.36
2022-08-01T23:52:57.956Z,57.74
2022-08-01T23:55:14.919Z,58.09
2022-08-01T23:57:20.337Z,58.08
2022-08-01T23:59:52.528Z,58.18
